sensor_id;sensor_type;location;lat;lon;timestamp;P1;durP1;ratioP1;P2;durP2;ratioP2
42196;SDS011;27866;48.146;17.098;2022-10-04T00:06:48;4.80;;;2.00;;
42196;SDS011;27866;48.146;17.098;2022-10-04T00:11:30;3.42;;;1.77;;
42196;SDS011;27866;48.146;17.098;2022-10-04T00:15:47;5.35;;;2.40;;
42196;SDS011;27866;48.146;17.098;2022-10-04T00:20:00;5.25;;;1.88;;
42196;SDS011;27866;48.146;17.098;2022-10-04T00:24:19;4.60;;;2.30;;
42196;SDS011;27866;48.146;17.098;2022-10-04T00:28:42;4.82;;;2.20;;
42196;SDS011;27866;48.146;17.098;2022-10-04T00:33:01;4.57;;;2.20;;
42196;SDS011;27866;48.146;17.098;2022-10-04T00:37:15;6.13;;;1.95;;
42196;SDS011;27866;48.146;17.098;2022-10-04T00:41:28;6.55;;;2.20;;
42196;SDS011;27866;48.146;17.098;2022-10-04T00:46:27;5.22;;;1.95;;
42196;SDS011;27866;48.146;17.098;2022-10-04T00:51:15;3.47;;;1.90;;
42196;SDS011;27866;48.146;17.098;2022-10-04T00:55:37;5.25;;;1.80;;
42196;SDS011;27866;48.146;17.098;2022-10-04T01:00:02;6.22;;;1.90;;
42196;SDS011;27866;48.146;17.098;2022-10-04T01:09:11;4.90;;;1.85;;
42196;SDS011;27866;48.146;17.098;2022-10-04T01:13:27;4.97;;;2.00;;
42196;SDS011;27866;48.146;17.098;2022-10-04T01:18:06;8.20;;;2.00;;
42196;SDS011;27866;48.146;17.098;2022-10-04T01:22:35;4.40;;;2.00;;
42196;SDS011;27866;48.146;17.098;2022-10-04T01:26:51;5.78;;;2.17;;
42196;SDS011;27866;48.146;17.098;2022-10-04T01:31:03;5.95;;;2.05;;
42196;SDS011;27866;48.146;17.098;2022-10-04T01:35:15;6.13;;;2.10;;
42196;SDS011;27866;48.146;17.098;2022-10-04T01:39:29;8.10;;;2.13;;
42196;SDS011;27866;48.146;17.098;2022-10-04T01:43:41;4.90;;;1.77;;
42196;SDS011;27866;48.146;17.098;2022-10-04T01:47:55;5.05;;;1.85;;
42196;SDS011;27866;48.146;17.098;2022-10-04T01:52:14;5.60;;;1.73;;
42196;SDS011;27866;48.146;17.098;2022-10-04T01:56:37;5.70;;;1.77;;
42196;SDS011;27866;48.146;17.098;2022-10-04T02:01:22;3.97;;;1.83;;
42196;SDS011;27866;48.146;17.098;2022-10-04T02:05:43;6.53;;;1.80;;
42196;SDS011;27866;48.146;17.098;2022-10-04T02:10:04;5.90;;;1.92;;
42196;SDS011;27866;48.146;17.098;2022-10-04T02:14:30;5.68;;;1.67;;
42196;SDS011;27866;48.146;17.098;2022-10-04T02:18:43;5.05;;;1.63;;
42196;SDS011;27866;48.146;17.098;2022-10-04T02:22:56;5.57;;;1.70;;
42196;SDS011;27866;48.146;17.098;2022-10-04T02:27:12;4.82;;;1.98;;
42196;SDS011;27866;48.146;17.098;2022-10-04T02:31:23;7.80;;;1.98;;
42196;SDS011;27866;48.146;17.098;2022-10-04T02:36:09;5.80;;;1.70;;
42196;SDS011;27866;48.146;17.098;2022-10-04T02:40:22;2.90;;;1.80;;
42196;SDS011;27866;48.146;17.098;2022-10-04T02:44:46;5.10;;;1.80;;
42196;SDS011;27866;48.146;17.098;2022-10-04T02:49:09;6.10;;;1.75;;
42196;SDS011;27866;48.146;17.098;2022-10-04T02:58:06;5.47;;;1.70;;
42196;SDS011;27866;48.146;17.098;2022-10-04T03:02:26;5.50;;;1.80;;
42196;SDS011;27866;48.146;17.098;2022-10-04T03:06:40;7.38;;;2.05;;
42196;SDS011;27866;48.146;17.098;2022-10-04T03:10:55;3.78;;;1.55;;
42196;SDS011;27866;48.146;17.098;2022-10-04T03:15:09;6.60;;;1.65;;
42196;SDS011;27866;48.146;17.098;2022-10-04T03:19:22;6.28;;;1.88;;
42196;SDS011;27866;48.146;17.098;2022-10-04T03:23:36;5.40;;;1.70;;
42196;SDS011;27866;48.146;17.098;2022-10-04T03:27:49;3.25;;;1.48;;
42196;SDS011;27866;48.146;17.098;2022-10-04T03:32:02;6.00;;;1.98;;
42196;SDS011;27866;48.146;17.098;2022-10-04T03:36:15;4.43;;;1.90;;
42196;SDS011;27866;48.146;17.098;2022-10-04T03:40:29;4.00;;;1.52;;
42196;SDS011;27866;48.146;17.098;2022-10-04T03:44:45;5.43;;;1.80;;
42196;SDS011;27866;48.146;17.098;2022-10-04T03:48:59;5.60;;;1.65;;
42196;SDS011;27866;48.146;17.098;2022-10-04T03:53:17;6.85;;;1.80;;
42196;SDS011;27866;48.146;17.098;2022-10-04T03:57:44;2.87;;;1.60;;
42196;SDS011;27866;48.146;17.098;2022-10-04T04:02:14;5.28;;;1.80;;
42196;SDS011;27866;48.146;17.098;2022-10-04T04:06:44;7.20;;;2.43;;
42196;SDS011;27866;48.146;17.098;2022-10-04T04:11:00;3.30;;;1.40;;
42196;SDS011;27866;48.146;17.098;2022-10-04T04:15:15;3.20;;;1.60;;
42196;SDS011;27866;48.146;17.098;2022-10-04T04:19:26;4.90;;;1.65;;
42196;SDS011;27866;48.146;17.098;2022-10-04T04:23:38;2.95;;;1.67;;
42196;SDS011;27866;48.146;17.098;2022-10-04T04:27:58;4.85;;;1.77;;
42196;SDS011;27866;48.146;17.098;2022-10-04T04:32:43;3.55;;;1.70;;
42196;SDS011;27866;48.146;17.098;2022-10-04T04:37:02;3.80;;;1.75;;
42196;SDS011;27866;48.146;17.098;2022-10-04T04:41:14;5.33;;;2.00;;
42196;SDS011;27866;48.146;17.098;2022-10-04T04:45:26;5.32;;;1.67;;
42196;SDS011;27866;48.146;17.098;2022-10-04T04:49:40;7.70;;;1.67;;
42196;SDS011;27866;48.146;17.098;2022-10-04T04:53:51;5.93;;;1.80;;
42196;SDS011;27866;48.146;17.098;2022-10-04T04:58:03;5.93;;;1.95;;
42196;SDS011;27866;48.146;17.098;2022-10-04T05:02:30;2.95;;;1.63;;
42196;SDS011;27866;48.146;17.098;2022-10-04T05:07:03;5.38;;;1.75;;
42196;SDS011;27866;48.146;17.098;2022-10-04T05:11:16;8.98;;;1.60;;
42196;SDS011;27866;48.146;17.098;2022-10-04T05:15:31;3.72;;;1.73;;
42196;SDS011;27866;48.146;17.098;2022-10-04T05:19:49;7.63;;;2.25;;
42196;SDS011;27866;48.146;17.098;2022-10-04T05:24:44;8.27;;;2.00;;
42196;SDS011;27866;48.146;17.098;2022-10-04T05:28:48;5.00;;;2.28;;
42196;SDS011;27866;48.146;17.098;2022-10-04T05:33:07;5.82;;;2.08;;
42196;SDS011;27866;48.146;17.098;2022-10-04T05:41:52;5.18;;;1.95;;
42196;SDS011;27866;48.146;17.098;2022-10-04T05:46:30;4.07;;;2.10;;
42196;SDS011;27866;48.146;17.098;2022-10-04T05:50:44;6.93;;;1.87;;
42196;SDS011;27866;48.146;17.098;2022-10-04T06:04:34;5.65;;;2.20;;
42196;SDS011;27866;48.146;17.098;2022-10-04T06:23:18;5.63;;;2.33;;
42196;SDS011;27866;48.146;17.098;2022-10-04T06:27:54;10.93;;;2.13;;
42196;SDS011;27866;48.146;17.098;2022-10-04T06:42:09;7.80;;;2.10;;
42196;SDS011;27866;48.146;17.098;2022-10-04T06:46:39;8.40;;;2.28;;
42196;SDS011;27866;48.146;17.098;2022-10-04T06:55:39;7.05;;;1.52;;
42196;SDS011;27866;48.146;17.098;2022-10-04T07:09:13;9.93;;;2.42;;
42196;SDS011;27866;48.146;17.098;2022-10-04T07:18:00;5.80;;;1.85;;
42196;SDS011;27866;48.146;17.098;2022-10-04T07:22:29;5.68;;;1.55;;
42196;SDS011;27866;48.146;17.098;2022-10-04T07:26:51;6.60;;;2.15;;
42196;SDS011;27866;48.146;17.098;2022-10-04T07:31:12;6.25;;;1.77;;
42196;SDS011;27866;48.146;17.098;2022-10-04T07:35:44;8.77;;;2.17;;
42196;SDS011;27866;48.146;17.098;2022-10-04T07:40:23;7.18;;;2.20;;
42196;SDS011;27866;48.146;17.098;2022-10-04T07:44:41;4.72;;;1.90;;
42196;SDS011;27866;48.146;17.098;2022-10-04T07:48:56;6.97;;;1.90;;
42196;SDS011;27866;48.146;17.098;2022-10-04T08:07:02;6.63;;;2.15;;
42196;SDS011;27866;48.146;17.098;2022-10-04T08:11:37;7.18;;;2.45;;
42196;SDS011;27866;48.146;17.098;2022-10-04T08:16:36;6.57;;;2.03;;
42196;SDS011;27866;48.146;17.098;2022-10-04T08:21:08;8.02;;;2.20;;
42196;SDS011;27866;48.146;17.098;2022-10-04T08:30:09;8.90;;;1.95;;
42196;SDS011;27866;48.146;17.098;2022-10-04T08:34:29;9.30;;;2.05;;
42196;SDS011;27866;48.146;17.098;2022-10-04T08:39:01;8.70;;;1.98;;
42196;SDS011;27866;48.146;17.098;2022-10-04T08:53:33;6.40;;;1.85;;
42196;SDS011;27866;48.146;17.098;2022-10-04T09:03:02;5.50;;;1.50;;
42196;SDS011;27866;48.146;17.098;2022-10-04T09:08:33;7.75;;;1.88;;
42196;SDS011;27866;48.146;17.098;2022-10-04T09:18:21;8.35;;;1.80;;
42196;SDS011;27866;48.146;17.098;2022-10-04T09:22:55;8.68;;;1.95;;
42196;SDS011;27866;48.146;17.098;2022-10-04T09:27:49;5.90;;;2.10;;
42196;SDS011;27866;48.146;17.098;2022-10-04T10:01:02;6.55;;;1.77;;
42196;SDS011;27866;48.146;17.098;2022-10-04T10:25:10;3.53;;;1.77;;
42196;SDS011;27866;48.146;17.098;2022-10-04T10:34:57;7.30;;;1.92;;
42196;SDS011;27866;48.146;17.098;2022-10-04T10:44:25;3.67;;;1.73;;
42196;SDS011;27866;48.146;17.098;2022-10-04T11:07:53;3.40;;;1.50;;
42196;SDS011;27866;48.146;17.098;2022-10-04T11:41:55;6.70;;;1.92;;
42196;SDS011;27866;48.146;17.098;2022-10-04T11:51:04;8.68;;;1.90;;
42196;SDS011;27866;48.146;17.098;2022-10-04T11:55:53;4.05;;;1.85;;
42196;SDS011;27866;48.146;17.098;2022-10-04T12:00:23;6.95;;;2.20;;
42196;SDS011;27866;48.146;17.098;2022-10-04T12:04:46;4.45;;;1.80;;
42196;SDS011;27866;48.146;17.098;2022-10-04T12:09:47;9.15;;;1.95;;
42196;SDS011;27866;48.146;17.098;2022-10-04T12:14:58;7.90;;;2.10;;
42196;SDS011;27866;48.146;17.098;2022-10-04T13:16:01;9.70;;;2.00;;
42196;SDS011;27866;48.146;17.098;2022-10-04T13:20:47;6.05;;;2.00;;
42196;SDS011;27866;48.146;17.098;2022-10-04T13:25:53;3.40;;;1.60;;
42196;SDS011;27866;48.146;17.098;2022-10-04T13:34:44;9.48;;;2.10;;
42196;SDS011;27866;48.146;17.098;2022-10-04T13:48:32;7.82;;;2.88;;
42196;SDS011;27866;48.146;17.098;2022-10-04T13:58:55;9.70;;;2.97;;
42196;SDS011;27866;48.146;17.098;2022-10-04T14:49:37;5.07;;;1.83;;
42196;SDS011;27866;48.146;17.098;2022-10-04T15:07:41;5.78;;;1.88;;
42196;SDS011;27866;48.146;17.098;2022-10-04T15:12:23;4.32;;;1.40;;
42196;SDS011;27866;48.146;17.098;2022-10-04T15:17:27;5.85;;;3.10;;
42196;SDS011;27866;48.146;17.098;2022-10-04T15:48:24;7.20;;;1.90;;
42196;SDS011;27866;48.146;17.098;2022-10-04T16:20:55;8.57;;;2.00;;
42196;SDS011;27866;48.146;17.098;2022-10-04T16:30:01;10.23;;;2.78;;
42196;SDS011;27866;48.146;17.098;2022-10-04T16:38:46;5.28;;;2.60;;
42196;SDS011;27866;48.146;17.098;2022-10-04T16:43:25;5.43;;;2.60;;
42196;SDS011;27866;48.146;17.098;2022-10-04T16:47:51;5.07;;;2.00;;
42196;SDS011;27866;48.146;17.098;2022-10-04T16:52:37;6.93;;;2.50;;
42196;SDS011;27866;48.146;17.098;2022-10-04T17:19:41;6.72;;;3.13;;
42196;SDS011;27866;48.146;17.098;2022-10-04T17:24:09;7.72;;;3.35;;
42196;SDS011;27866;48.146;17.098;2022-10-04T17:33:54;8.63;;;3.13;;
42196;SDS011;27866;48.146;17.098;2022-10-04T17:38:33;5.43;;;2.83;;
42196;SDS011;27866;48.146;17.098;2022-10-04T17:43:41;6.55;;;3.22;;
42196;SDS011;27866;48.146;17.098;2022-10-04T17:47:53;5.55;;;3.40;;
42196;SDS011;27866;48.146;17.098;2022-10-04T17:52:33;7.00;;;3.65;;
42196;SDS011;27866;48.146;17.098;2022-10-04T17:57:17;8.82;;;3.40;;
42196;SDS011;27866;48.146;17.098;2022-10-04T18:01:46;7.85;;;3.75;;
42196;SDS011;27866;48.146;17.098;2022-10-04T18:06:53;7.80;;;4.13;;
42196;SDS011;27866;48.146;17.098;2022-10-04T18:11:11;10.88;;;3.40;;
42196;SDS011;27866;48.146;17.098;2022-10-04T18:15:37;17.60;;;8.52;;
42196;SDS011;27866;48.146;17.098;2022-10-04T18:24:36;13.30;;;7.10;;
42196;SDS011;27866;48.146;17.098;2022-10-04T18:28:47;19.15;;;8.80;;
42196;SDS011;27866;48.146;17.098;2022-10-04T18:33:00;6.32;;;4.10;;
42196;SDS011;27866;48.146;17.098;2022-10-04T18:37:18;5.70;;;3.25;;
42196;SDS011;27866;48.146;17.098;2022-10-04T18:41:43;6.82;;;2.75;;
42196;SDS011;27866;48.146;17.098;2022-10-04T18:46:17;4.07;;;2.65;;
42196;SDS011;27866;48.146;17.098;2022-10-04T18:50:38;5.82;;;2.95;;
42196;SDS011;27866;48.146;17.098;2022-10-04T18:55:00;5.50;;;3.55;;
42196;SDS011;27866;48.146;17.098;2022-10-04T18:59:50;6.90;;;4.28;;
42196;SDS011;27866;48.146;17.098;2022-10-04T19:13:39;6.13;;;2.80;;
42196;SDS011;27866;48.146;17.098;2022-10-04T19:27:51;5.68;;;3.28;;
42196;SDS011;27866;48.146;17.098;2022-10-04T19:32:35;7.55;;;3.65;;
42196;SDS011;27866;48.146;17.098;2022-10-04T19:37:24;10.20;;;4.43;;
42196;SDS011;27866;48.146;17.098;2022-10-04T19:41:56;11.88;;;4.68;;
42196;SDS011;27866;48.146;17.098;2022-10-04T19:50:45;9.20;;;5.45;;
42196;SDS011;27866;48.146;17.098;2022-10-04T19:59:39;10.77;;;5.95;;
42196;SDS011;27866;48.146;17.098;2022-10-04T20:03:55;10.05;;;6.40;;
42196;SDS011;27866;48.146;17.098;2022-10-04T20:13:18;13.03;;;8.00;;
42196;SDS011;27866;48.146;17.098;2022-10-04T20:17:34;13.40;;;7.55;;
42196;SDS011;27866;48.146;17.098;2022-10-04T20:21:45;22.85;;;10.18;;
42196;SDS011;27866;48.146;17.098;2022-10-04T20:30:11;18.17;;;8.88;;
42196;SDS011;27866;48.146;17.098;2022-10-04T20:47:32;8.65;;;4.82;;
42196;SDS011;27866;48.146;17.098;2022-10-04T20:51:55;7.85;;;4.70;;
42196;SDS011;27866;48.146;17.098;2022-10-04T21:00:35;10.48;;;5.43;;
42196;SDS011;27866;48.146;17.098;2022-10-04T21:05:26;11.73;;;6.85;;
42196;SDS011;27866;48.146;17.098;2022-10-04T21:09:38;15.40;;;7.70;;
42196;SDS011;27866;48.146;17.098;2022-10-04T21:18:11;11.40;;;6.10;;
42196;SDS011;27866;48.146;17.098;2022-10-04T21:22:33;19.70;;;6.50;;
42196;SDS011;27866;48.146;17.098;2022-10-04T21:26:54;12.73;;;5.20;;
42196;SDS011;27866;48.146;17.098;2022-10-04T21:31:06;8.63;;;4.10;;
42196;SDS011;27866;48.146;17.098;2022-10-04T21:35:17;8.52;;;3.90;;
42196;SDS011;27866;48.146;17.098;2022-10-04T21:39:28;5.63;;;3.65;;
42196;SDS011;27866;48.146;17.098;2022-10-04T21:43:40;7.03;;;4.15;;
42196;SDS011;27866;48.146;17.098;2022-10-04T21:47:51;7.07;;;3.88;;
42196;SDS011;27866;48.146;17.098;2022-10-04T21:52:02;7.97;;;3.20;;
42196;SDS011;27866;48.146;17.098;2022-10-04T21:56:13;5.57;;;3.17;;
42196;SDS011;27866;48.146;17.098;2022-10-04T22:00:25;6.55;;;2.92;;
42196;SDS011;27866;48.146;17.098;2022-10-04T22:04:36;4.72;;;3.10;;
42196;SDS011;27866;48.146;17.098;2022-10-04T22:08:47;4.82;;;2.83;;
42196;SDS011;27866;48.146;17.098;2022-10-04T22:12:58;5.25;;;3.30;;
42196;SDS011;27866;48.146;17.098;2022-10-04T22:17:09;5.90;;;3.00;;
42196;SDS011;27866;48.146;17.098;2022-10-04T22:21:20;7.22;;;4.00;;
42196;SDS011;27866;48.146;17.098;2022-10-04T22:25:31;7.65;;;3.80;;
42196;SDS011;27866;48.146;17.098;2022-10-04T22:29:43;8.15;;;4.00;;
42196;SDS011;27866;48.146;17.098;2022-10-04T22:33:54;9.43;;;4.70;;
42196;SDS011;27866;48.146;17.098;2022-10-04T22:38:06;8.07;;;4.30;;
42196;SDS011;27866;48.146;17.098;2022-10-04T22:42:26;6.22;;;4.32;;
42196;SDS011;27866;48.146;17.098;2022-10-04T22:46:41;8.85;;;4.20;;
42196;SDS011;27866;48.146;17.098;2022-10-04T22:50:55;5.22;;;3.90;;
42196;SDS011;27866;48.146;17.098;2022-10-04T22:55:07;9.43;;;4.20;;
42196;SDS011;27866;48.146;17.098;2022-10-04T22:59:33;10.15;;;5.13;;
42196;SDS011;27866;48.146;17.098;2022-10-04T23:03:49;7.68;;;4.28;;
42196;SDS011;27866;48.146;17.098;2022-10-04T23:08:00;6.47;;;3.35;;
42196;SDS011;27866;48.146;17.098;2022-10-04T23:12:11;10.90;;;3.63;;
42196;SDS011;27866;48.146;17.098;2022-10-04T23:16:22;5.00;;;3.55;;
42196;SDS011;27866;48.146;17.098;2022-10-04T23:20:34;11.05;;;4.10;;
42196;SDS011;27866;48.146;17.098;2022-10-04T23:24:45;8.85;;;4.13;;
42196;SDS011;27866;48.146;17.098;2022-10-04T23:28:56;6.30;;;4.03;;
42196;SDS011;27866;48.146;17.098;2022-10-04T23:33:12;6.03;;;3.72;;
42196;SDS011;27866;48.146;17.098;2022-10-04T23:37:33;5.68;;;3.35;;
42196;SDS011;27866;48.146;17.098;2022-10-04T23:41:44;8.63;;;3.58;;
42196;SDS011;27866;48.146;17.098;2022-10-04T23:45:55;5.95;;;3.75;;
42196;SDS011;27866;48.146;17.098;2022-10-04T23:50:16;4.95;;;3.65;;
42196;SDS011;27866;48.146;17.098;2022-10-04T23:54:42;6.78;;;3.92;;
42196;SDS011;27866;48.146;17.098;2022-10-04T23:58:54;5.25;;;3.55;;
